Point Enterprise, Texas
Current Conditions -  °F | °C
As of 7:55 AM on Wednesday 26 Nov 2014 (Local Time) from KLXY Reporting Station
Clear Clear  
Wind Chill: 42°   Ceiling: Unl
Heat Index: 47°   Visibility: 10mi
Dew Point: 32°   Wind: 14mph
Humidity: 55%   Direction: 220°SW
Pressure: 30.11"   Gusts: 20mph
Location:  31.6887°N, 96.511°W
Report Text: KLXY 261355Z AUTO 22012G17KT 10SM CLR 09/00 A3011 RMK AO2 T00850000
Loading
Personal Weather Stations






























Interactive Weather Map New forecast layout! Learn more

10-Day Weather Forecast

Advertisements
Track Severe Weather on mobile